createdAt,value
2022-10-12T00:01:14.815Z,18.42
2022-10-12T00:03:43.470Z,20.60
2022-10-12T00:06:14.959Z,18.35
2022-10-12T00:08:45.149Z,12.00
2022-10-12T00:11:16.301Z,14.98
2022-10-12T00:13:46.444Z,11.80
2022-10-12T00:16:16.513Z,11.70
2022-10-12T00:18:44.823Z,14.23
2022-10-12T00:21:15.171Z,15.48
2022-10-12T00:23:44.832Z,17.55
2022-10-12T00:26:15.676Z,18.95
2022-10-12T00:28:45.919Z,12.95
2022-10-12T00:31:16.551Z,19.67
2022-10-12T00:33:45.743Z,15.90
2022-10-12T00:36:16.627Z,15.52
2022-10-12T00:38:45.385Z,21.40
2022-10-12T00:41:15.474Z,14.55
2022-10-12T00:43:46.731Z,14.77
2022-10-12T00:46:20.068Z,11.52
2022-10-12T00:48:53.597Z,20.17
2022-10-12T00:51:24.250Z,11.88
2022-10-12T00:53:57.446Z,20.27
2022-10-12T00:56:29.079Z,19.08
2022-10-12T00:59:01.070Z,22.15
2022-10-12T01:01:30.938Z,19.08
2022-10-12T01:03:59.210Z,11.32
2022-10-12T01:06:27.941Z,20.05
2022-10-12T01:08:57.124Z,18.83
2022-10-12T01:11:25.730Z,14.38
2022-10-12T01:13:54.443Z,14.80
2022-10-12T01:16:32.392Z,16.08
2022-10-12T01:19:11.346Z,15.15
2022-10-12T01:21:46.139Z,15.30
2022-10-12T01:24:42.836Z,11.63
2022-10-12T01:27:30.864Z,11.40
2022-10-12T01:30:23.089Z,12.20
2022-10-12T01:33:10.627Z,12.52
2022-10-12T01:35:44.749Z,8.80
2022-10-12T01:38:25.071Z,11.57
2022-10-12T01:41:00.748Z,9.93
2022-10-12T01:43:35.246Z,12.38
2022-10-12T01:46:41.135Z,9.13
2022-10-12T01:49:10.399Z,11.40
2022-10-12T01:51:57.594Z,11.70
2022-10-12T01:54:35.210Z,12.48
2022-10-12T01:57:09.979Z,8.27
2022-10-12T01:59:45.196Z,10.93
2022-10-12T02:02:21.382Z,17.10
2022-10-12T02:04:53.305Z,9.30
2022-10-12T02:07:27.771Z,10.65
2022-10-12T02:09:58.806Z,9.63
2022-10-12T02:12:29.699Z,10.07
2022-10-12T02:15:01.919Z,20.45
2022-10-12T02:17:34.103Z,12.15
2022-10-12T02:20:04.421Z,11.32
2022-10-12T02:22:35.922Z,17.67
2022-10-12T02:25:07.484Z,13.73
2022-10-12T02:27:37.272Z,9.57
2022-10-12T02:30:07.699Z,13.73
2022-10-12T02:32:41.530Z,14.68
2022-10-12T02:35:18.818Z,15.52
2022-10-12T02:37:51.042Z,13.60
2022-10-12T02:40:25.424Z,14.88
2022-10-12T02:43:09.805Z,16.58
2022-10-12T02:45:41.040Z,12.65
2022-10-12T02:48:13.180Z,11.15
2022-10-12T02:50:41.880Z,13.13
2022-10-12T02:53:10.789Z,11.07
2022-10-12T02:55:40.238Z,13.95
2022-10-12T02:58:08.738Z,11.48
2022-10-12T03:00:37.099Z,15.43
2022-10-12T03:03:05.633Z,14.65
2022-10-12T03:05:35.389Z,11.13
2022-10-12T03:08:03.841Z,11.43
2022-10-12T03:10:32.574Z,10.50
2022-10-12T03:13:00.890Z,13.30
2022-10-12T03:15:29.236Z,8.73
2022-10-12T03:17:57.788Z,13.25
2022-10-12T03:20:26.272Z,10.88
2022-10-12T03:22:55.968Z,14.02
2022-10-12T03:25:24.536Z,17.08
2022-10-12T03:27:52.838Z,12.13
2022-10-12T03:30:21.198Z,6.75
2022-10-12T03:32:49.616Z,11.40
2022-10-12T03:35:18.047Z,10.43
2022-10-12T03:37:46.444Z,13.75
2022-10-12T03:40:16.606Z,5.28
2022-10-12T03:42:44.894Z,7.65
2022-10-12T03:45:13.544Z,9.57
2022-10-12T03:47:41.821Z,10.10
2022-10-12T03:50:11.293Z,9.60
2022-10-12T03:52:39.753Z,8.55
2022-10-12T03:55:08.945Z,12.63
2022-10-12T03:57:38.631Z,8.50
2022-10-12T04:00:08.940Z,15.25
2022-10-12T04:02:37.218Z,13.45
2022-10-12T04:05:06.450Z,14.07
2022-10-12T04:07:34.940Z,11.77
2022-10-12T04:10:03.297Z,11.77
2022-10-12T04:12:31.989Z,9.38
2022-10-12T04:15:01.851Z,13.25
2022-10-12T04:17:30.353Z,13.52
2022-10-12T04:19:58.959Z,9.60
2022-10-12T04:22:27.665Z,17.10
2022-10-12T04:24:56.005Z,9.25
2022-10-12T04:27:24.644Z,10.23
2022-10-12T04:29:52.978Z,13.82
2022-10-12T04:32:22.688Z,15.55
2022-10-12T04:34:51.371Z,12.80
2022-10-12T04:37:19.721Z,9.93
2022-10-12T04:39:48.349Z,17.92
2022-10-12T04:42:16.732Z,11.38
2022-10-12T04:44:45.343Z,10.55
2022-10-12T04:47:13.661Z,11.57
2022-10-12T04:49:43.515Z,13.13
2022-10-12T04:52:11.963Z,17.15
2022-10-12T04:54:41.094Z,11.57
2022-10-12T04:57:09.553Z,15.85
2022-10-12T04:59:38.118Z,11.90
2022-10-12T05:02:06.433Z,14.07
2022-10-12T05:07:09.757Z,9.77
2022-10-12T05:09:38.108Z,14.85
2022-10-12T05:12:07.420Z,11.10
2022-10-12T05:14:36.311Z,12.45
2022-10-12T05:17:05.615Z,14.27
2022-10-12T05:19:33.911Z,16.17
2022-10-12T05:22:02.742Z,16.35
2022-10-12T05:24:32.465Z,11.13
2022-10-12T05:27:02.742Z,12.65
2022-10-12T05:29:31.400Z,15.65
2022-10-12T05:32:00.129Z,17.92
2022-10-12T05:34:28.601Z,9.20
2022-10-12T05:36:58.351Z,25.75
2022-10-12T05:39:26.687Z,13.15
2022-10-12T05:41:56.548Z,12.30
2022-10-12T05:44:24.814Z,14.75
2022-10-12T05:46:53.409Z,15.05
2022-10-12T05:49:22.390Z,18.35
2022-10-12T05:51:50.989Z,16.85
2022-10-12T05:54:19.414Z,16.63
2022-10-12T05:56:47.827Z,11.18
2022-10-12T05:59:17.667Z,16.15
2022-10-12T06:01:46.259Z,14.10
2022-10-12T06:04:14.496Z,18.45
2022-10-12T06:06:43.393Z,20.27
2022-10-12T06:09:12.402Z,12.68
2022-10-12T06:11:40.885Z,12.40
2022-10-12T06:14:09.451Z,22.35
2022-10-12T06:16:39.339Z,10.77
2022-10-12T06:19:07.666Z,13.63
2022-10-12T06:21:36.135Z,11.40
2022-10-12T06:24:05.907Z,10.35
2022-10-12T06:26:34.838Z,20.13
2022-10-12T06:29:03.731Z,14.82
2022-10-12T06:31:33.911Z,10.25
2022-10-12T06:34:03.666Z,10.65
2022-10-12T06:36:32.398Z,15.27
2022-10-12T06:39:00.783Z,16.50
2022-10-12T06:41:29.370Z,14.23
2022-10-12T06:43:57.706Z,11.02
2022-10-12T06:46:26.224Z,12.02
2022-10-12T06:48:54.633Z,14.35
2022-10-12T06:51:24.582Z,23.30
2022-10-12T06:53:56.615Z,13.05
2022-10-12T06:56:25.283Z,15.25
2022-10-12T06:58:56.933Z,11.20
2022-10-12T07:01:25.805Z,13.45
2022-10-12T07:03:58.368Z,22.35
2022-10-12T07:06:30.383Z,18.25
2022-10-12T07:08:58.890Z,11.80
2022-10-12T07:11:27.419Z,14.23
2022-10-12T07:13:55.745Z,14.82
2022-10-12T07:16:24.222Z,12.38
2022-10-12T07:18:52.807Z,19.20
2022-10-12T07:21:21.603Z,12.90
2022-10-12T07:23:51.431Z,14.50
2022-10-12T07:26:19.931Z,23.40
2022-10-12T07:28:48.637Z,22.30
2022-10-12T07:31:17.263Z,10.52
2022-10-12T07:33:45.487Z,15.23
2022-10-12T07:36:15.829Z,10.23
2022-10-12T07:38:49.193Z,27.40
2022-10-12T07:41:19.940Z,14.13
2022-10-12T07:43:48.186Z,12.95
2022-10-12T07:46:16.776Z,17.98
2022-10-12T07:48:50.051Z,11.10
2022-10-12T07:51:19.450Z,9.05
2022-10-12T07:53:48.397Z,9.40
2022-10-12T07:56:17.391Z,14.93
2022-10-12T07:58:50.993Z,11.30
2022-10-12T08:01:20.979Z,13.93
2022-10-12T08:03:49.587Z,10.45
2022-10-12T08:06:20.893Z,13.18
2022-10-12T08:08:49.373Z,10.23
2022-10-12T08:11:18.535Z,14.73
2022-10-12T08:13:47.163Z,9.80
2022-10-12T08:16:19.123Z,15.30
2022-10-12T08:18:47.631Z,13.48
2022-10-12T08:21:17.293Z,13.02
2022-10-12T08:23:46.567Z,9.60
2022-10-12T08:26:16.034Z,10.00
2022-10-12T08:28:44.732Z,10.45
2022-10-12T08:31:17.681Z,11.73
2022-10-12T08:33:46.147Z,9.93
2022-10-12T08:36:14.869Z,10.20
2022-10-12T08:38:44.406Z,8.57
2022-10-12T08:41:24.339Z,10.65
2022-10-12T08:44:20.049Z,12.70
2022-10-12T08:46:51.087Z,9.43
2022-10-12T08:49:22.243Z,14.90
2022-10-12T08:51:53.982Z,7.85
2022-10-12T08:54:24.420Z,12.23
2022-10-12T08:56:55.568Z,8.23
2022-10-12T08:59:24.109Z,14.07
2022-10-12T09:02:14.999Z,7.53
2022-10-12T09:04:55.061Z,8.73
2022-10-12T09:07:28.359Z,8.60
2022-10-12T09:10:14.216Z,9.73
2022-10-12T09:12:52.601Z,9.25
2022-10-12T09:15:24.169Z,7.63
2022-10-12T09:17:55.321Z,6.57
2022-10-12T09:20:27.477Z,7.70
2022-10-12T09:23:01.556Z,7.55
2022-10-12T09:25:30.066Z,7.43
2022-10-12T09:28:12.696Z,6.43
2022-10-12T09:30:45.724Z,8.65
2022-10-12T09:33:22.776Z,7.45
2022-10-12T09:35:51.546Z,14.93
2022-10-12T09:38:21.402Z,8.10
2022-10-12T09:40:49.688Z,10.23
2022-10-12T09:43:18.588Z,5.32
2022-10-12T09:45:47.674Z,8.32
2022-10-12T09:48:20.292Z,7.03
2022-10-12T09:50:54.107Z,4.57
2022-10-12T09:53:31.279Z,3.40
2022-10-12T09:56:05.844Z,5.05
2022-10-12T09:58:42.436Z,5.43
2022-10-12T10:01:19.150Z,2.42
2022-10-12T10:03:52.738Z,4.88
2022-10-12T10:06:25.609Z,10.30
2022-10-12T10:08:55.128Z,9.60
2022-10-12T10:11:26.813Z,4.95
2022-10-12T10:13:56.161Z,5.88
2022-10-12T10:16:27.044Z,5.65
2022-10-12T10:19:03.080Z,2.63
2022-10-12T10:21:34.689Z,9.77
2022-10-12T10:24:05.246Z,4.20
2022-10-12T10:26:52.356Z,3.42
2022-10-12T10:29:31.827Z,6.38
2022-10-12T10:32:23.995Z,9.23
2022-10-12T10:35:06.438Z,2.08
2022-10-12T10:37:36.185Z,2.13
2022-10-12T10:40:06.329Z,5.68
2022-10-12T10:42:36.136Z,7.43
2022-10-12T10:45:08.831Z,5.88
2022-10-12T10:47:46.711Z,6.25
2022-10-12T10:50:27.023Z,7.18
2022-10-12T10:52:58.476Z,5.13
2022-10-12T10:55:45.522Z,3.25
2022-10-12T10:58:23.511Z,6.57
2022-10-12T11:00:54.037Z,11.10
2022-10-12T11:03:27.350Z,4.63
2022-10-12T11:06:01.969Z,4.45
2022-10-12T11:08:32.069Z,5.80
2022-10-12T11:11:05.190Z,7.13
2022-10-12T11:13:37.435Z,2.10
2022-10-12T11:16:15.139Z,4.90
2022-10-12T11:18:48.255Z,8.75
2022-10-12T11:21:22.805Z,4.20
2022-10-12T11:23:54.977Z,4.55
2022-10-12T11:26:30.454Z,5.43
2022-10-12T11:29:01.089Z,4.35
2022-10-12T11:31:34.702Z,4.03
2022-10-12T11:34:08.000Z,3.58
2022-10-12T11:37:01.160Z,3.25
2022-10-12T11:39:35.910Z,8.93
2022-10-12T11:42:21.372Z,5.63
2022-10-12T11:44:50.975Z,6.88
2022-10-12T11:47:31.109Z,4.30
2022-10-12T11:50:01.957Z,5.47
2022-10-12T11:52:38.038Z,7.93
2022-10-12T11:55:25.221Z,1.98
2022-10-12T11:57:56.026Z,3.58
2022-10-12T12:00:28.771Z,1.98
2022-10-12T12:03:03.791Z,3.20
2022-10-12T12:05:33.559Z,4.15
2022-10-12T12:08:03.577Z,9.57
2022-10-12T12:11:04.338Z,0.98
2022-10-12T12:13:33.414Z,7.43
2022-10-12T12:16:32.915Z,3.63
2022-10-12T12:19:15.736Z,3.65
2022-10-12T12:22:26.426Z,2.22
2022-10-12T12:25:04.336Z,5.90
2022-10-12T12:27:39.877Z,6.72
2022-10-12T12:30:28.686Z,6.70
2022-10-12T12:32:59.429Z,5.43
2022-10-12T12:35:32.438Z,3.30
2022-10-12T12:38:18.262Z,3.70
2022-10-12T12:41:03.525Z,1.48
2022-10-12T12:43:54.887Z,5.80
2022-10-12T12:46:25.600Z,3.08
2022-10-12T12:49:02.593Z,6.18
2022-10-12T12:51:38.259Z,6.72
2022-10-12T12:54:13.961Z,3.15
2022-10-12T12:56:53.729Z,2.13
2022-10-12T12:59:58.027Z,4.60
2022-10-12T13:02:49.278Z,3.58
2022-10-12T13:06:13.374Z,2.55
2022-10-12T13:08:55.813Z,5.00
2022-10-12T13:11:44.800Z,4.32
2022-10-12T13:14:29.583Z,3.72
2022-10-12T13:17:35.900Z,2.45
2022-10-12T13:20:16.601Z,3.05
2022-10-12T13:22:46.676Z,4.55
2022-10-12T13:25:22.920Z,2.70
2022-10-12T13:27:53.455Z,4.00
2022-10-12T13:30:31.433Z,5.28
2022-10-12T13:33:04.756Z,4.45
2022-10-12T13:35:39.169Z,2.97
2022-10-12T13:38:19.836Z,4.40
2022-10-12T13:40:58.729Z,2.78
2022-10-12T13:43:35.228Z,3.60
2022-10-12T13:46:06.679Z,4.57
2022-10-12T13:48:58.085Z,3.03
2022-10-12T13:51:26.232Z,3.17
2022-10-12T13:53:54.714Z,10.98
2022-10-12T13:56:26.238Z,6.22
2022-10-12T13:58:59.262Z,7.75
2022-10-12T14:01:29.596Z,3.13
2022-10-12T14:04:04.644Z,8.48
2022-10-12T14:06:36.802Z,11.45
2022-10-12T14:09:10.411Z,5.68
2022-10-12T14:11:39.940Z,5.43
2022-10-12T14:14:18.345Z,16.80
2022-10-12T14:16:48.224Z,3.80
2022-10-12T14:19:21.740Z,3.58
2022-10-12T14:21:50.867Z,4.72
2022-10-12T14:24:20.731Z,4.45
2022-10-12T14:26:56.217Z,3.92
2022-10-12T14:29:33.284Z,5.03
2022-10-12T14:32:05.530Z,3.40
2022-10-12T14:34:43.843Z,6.63
2022-10-12T14:37:31.306Z,10.18
2022-10-12T14:40:02.538Z,4.60
2022-10-12T14:42:33.777Z,4.28
2022-10-12T14:45:03.266Z,5.25
2022-10-12T14:47:35.847Z,5.07
2022-10-12T14:50:08.557Z,6.80
2022-10-12T14:52:40.697Z,8.57
2022-10-12T14:55:15.749Z,3.70
2022-10-12T14:57:44.542Z,6.63
2022-10-12T15:00:15.894Z,8.57
2022-10-12T15:02:46.309Z,3.40
2022-10-12T15:05:16.504Z,2.60
2022-10-12T15:07:46.881Z,4.20
2022-10-12T15:10:15.447Z,4.35
2022-10-12T15:12:44.839Z,7.38
2022-10-12T15:15:28.837Z,3.88
2022-10-12T15:17:59.569Z,5.72
2022-10-12T15:20:29.573Z,5.82
2022-10-12T15:22:58.154Z,2.83
2022-10-12T15:25:33.356Z,4.70
2022-10-12T15:28:02.089Z,3.05
2022-10-12T15:30:30.624Z,4.20
2022-10-12T15:33:00.532Z,7.78
2022-10-12T15:35:33.968Z,4.30
2022-10-12T15:38:02.525Z,3.13
2022-10-12T15:40:32.289Z,3.80
2022-10-12T15:43:01.176Z,4.07
2022-10-12T15:45:32.898Z,12.70
2022-10-12T15:48:05.878Z,3.10
2022-10-12T15:50:38.944Z,2.65
2022-10-12T15:53:10.256Z,1.77
2022-10-12T15:55:38.509Z,3.08
2022-10-12T15:58:07.151Z,3.65
2022-10-12T16:00:35.528Z,3.25
2022-10-12T16:03:05.446Z,3.10
2022-10-12T16:05:35.491Z,3.67
2022-10-12T16:08:05.501Z,4.40
2022-10-12T16:10:37.244Z,2.15
2022-10-12T16:13:08.078Z,2.75
2022-10-12T16:15:37.458Z,4.22
2022-10-12T16:18:08.129Z,5.38
2022-10-12T16:20:38.223Z,5.88
2022-10-12T16:23:09.464Z,2.55
2022-10-12T16:25:37.759Z,5.60
2022-10-12T16:28:06.380Z,2.95
2022-10-12T16:30:34.732Z,3.33
2022-10-12T16:33:03.231Z,2.55
2022-10-12T16:35:32.869Z,5.20
2022-10-12T16:38:01.750Z,11.48
2022-10-12T16:40:30.101Z,4.10
2022-10-12T16:42:58.776Z,6.13
2022-10-12T16:45:27.183Z,6.88
2022-10-12T16:47:55.695Z,3.25
2022-10-12T16:50:25.303Z,10.45
2022-10-12T16:52:55.074Z,3.45
2022-10-12T16:55:23.557Z,1.95
2022-10-12T16:57:52.039Z,5.22
2022-10-12T17:00:20.941Z,8.68
2022-10-12T17:02:51.191Z,5.65
2022-10-12T17:05:21.740Z,5.70
2022-10-12T17:07:50.157Z,12.20
2022-10-12T17:10:19.753Z,6.70
2022-10-12T17:12:48.347Z,8.45
2022-10-12T17:15:16.733Z,10.52
2022-10-12T17:17:45.575Z,7.30
2022-10-12T17:20:13.855Z,5.60
2022-10-12T17:22:42.363Z,8.75
2022-10-12T17:25:10.923Z,5.95
2022-10-12T17:27:40.869Z,4.13
2022-10-12T17:30:10.335Z,10.70
2022-10-12T17:32:38.826Z,4.70
2022-10-12T17:35:07.762Z,12.13
2022-10-12T17:37:36.708Z,7.55
2022-10-12T17:40:05.400Z,6.82
2022-10-12T17:42:34.311Z,11.93
2022-10-12T17:45:04.296Z,10.57
2022-10-12T17:47:32.830Z,5.05
2022-10-12T17:50:01.121Z,8.77
2022-10-12T17:52:29.576Z,9.07
2022-10-12T17:54:57.902Z,10.10
2022-10-12T17:57:26.374Z,9.82
2022-10-12T17:59:54.796Z,8.82
2022-10-12T18:02:24.636Z,14.20
2022-10-12T18:04:53.251Z,13.13
2022-10-12T18:07:21.488Z,15.70
2022-10-12T18:09:49.753Z,17.42
2022-10-12T18:12:18.813Z,12.88
2022-10-12T18:14:47.403Z,18.25
2022-10-12T18:17:15.676Z,16.80
2022-10-12T18:19:47.081Z,26.55
2022-10-12T18:22:15.535Z,25.33
2022-10-12T18:24:44.384Z,29.05
2022-10-12T18:27:12.676Z,27.80
2022-10-12T18:29:41.005Z,25.60
2022-10-12T18:32:09.849Z,24.23
2022-10-12T18:34:40.520Z,29.00
2022-10-12T18:37:10.400Z,23.67
2022-10-12T18:39:40.177Z,29.60
2022-10-12T18:42:08.685Z,26.58
2022-10-12T18:44:37.493Z,23.05
2022-10-12T18:47:06.008Z,20.73
2022-10-12T18:49:34.362Z,29.50
2022-10-12T18:52:03.226Z,28.85
2022-10-12T18:54:32.860Z,22.05
2022-10-12T18:57:02.554Z,24.40
2022-10-12T18:59:30.827Z,21.38
2022-10-12T19:02:01.428Z,25.83
2022-10-12T19:04:29.682Z,23.95
2022-10-12T19:06:58.093Z,23.98
2022-10-12T19:09:26.551Z,25.42
2022-10-12T19:11:56.431Z,28.75
2022-10-12T19:14:25.965Z,26.13
2022-10-12T19:16:54.434Z,20.92
2022-10-12T19:19:23.015Z,24.98
2022-10-12T19:21:53.655Z,21.70
2022-10-12T19:24:22.463Z,24.25
2022-10-12T19:26:51.455Z,23.80
2022-10-12T19:29:21.273Z,24.33
2022-10-12T19:31:50.767Z,19.35
2022-10-12T19:34:21.509Z,20.77
2022-10-12T19:36:50.130Z,31.38
2022-10-12T19:39:20.794Z,26.75
2022-10-12T19:41:50.332Z,29.60
2022-10-12T19:44:20.871Z,29.42
2022-10-12T19:46:51.118Z,25.48
2022-10-12T19:49:20.474Z,38.38
2022-10-12T19:51:49.102Z,40.83
2022-10-12T19:54:17.898Z,33.20
2022-10-12T19:56:47.292Z,29.20
2022-10-12T19:59:15.574Z,36.50
2022-10-12T20:01:48.106Z,33.22
2022-10-12T20:04:17.253Z,25.05
2022-10-12T20:06:46.117Z,28.48
2022-10-12T20:09:14.517Z,21.77
2022-10-12T20:11:43.419Z,28.20
2022-10-12T20:14:12.286Z,23.25
2022-10-12T20:16:40.685Z,25.95
2022-10-12T20:19:10.606Z,28.73
2022-10-12T20:21:38.946Z,29.30
2022-10-12T20:24:09.822Z,30.48
2022-10-12T20:26:39.004Z,37.13
2022-10-12T20:29:07.334Z,37.55
2022-10-12T20:31:35.862Z,34.00
2022-10-12T20:34:04.316Z,30.00
2022-10-12T20:36:33.966Z,30.98
2022-10-12T20:39:02.616Z,34.70
2022-10-12T20:41:33.644Z,33.42
2022-10-12T20:44:02.263Z,30.48
2022-10-12T20:46:31.184Z,32.97
2022-10-12T20:49:02.383Z,26.83
2022-10-12T20:51:35.794Z,28.75
2022-10-12T20:54:05.881Z,24.15
2022-10-12T20:56:35.053Z,22.58
2022-10-12T20:59:03.516Z,24.48
2022-10-12T21:01:31.847Z,17.98
2022-10-12T21:04:00.793Z,24.52
2022-10-12T21:06:29.285Z,18.20
2022-10-12T21:08:59.284Z,16.48
2022-10-12T21:11:31.227Z,22.25
2022-10-12T21:13:59.715Z,22.13
2022-10-12T21:16:28.103Z,21.33
2022-10-12T21:18:57.386Z,17.75
2022-10-12T21:21:25.796Z,15.68
2022-10-12T21:23:56.267Z,19.15
2022-10-12T21:26:29.487Z,20.92
2022-10-12T21:28:58.793Z,22.20
2022-10-12T21:31:32.007Z,21.17
2022-10-12T21:34:01.719Z,26.60
2022-10-12T21:36:31.496Z,16.15
2022-10-12T21:38:59.752Z,12.70
2022-10-12T21:41:31.019Z,15.90
2022-10-12T21:43:59.854Z,17.75
2022-10-12T21:46:30.136Z,14.90
2022-10-12T21:48:59.666Z,18.58
2022-10-12T21:51:31.361Z,14.82
2022-10-12T21:53:59.767Z,20.17
2022-10-12T21:56:31.320Z,12.73
2022-10-12T21:59:01.384Z,18.98
2022-10-12T22:01:31.264Z,14.32
2022-10-12T22:04:00.970Z,17.83
2022-10-12T22:06:30.422Z,14.98
2022-10-12T22:09:00.418Z,14.75
2022-10-12T22:11:31.971Z,9.88
2022-10-12T22:14:02.054Z,17.17
2022-10-12T22:16:30.764Z,15.38
2022-10-12T22:18:59.670Z,15.60
2022-10-12T22:21:28.847Z,20.50
2022-10-12T22:23:57.267Z,13.70
2022-10-12T22:26:26.275Z,21.30
2022-10-12T22:28:56.333Z,16.75
2022-10-12T22:31:25.782Z,17.67
2022-10-12T22:33:54.419Z,21.63
2022-10-12T22:36:23.024Z,23.58
2022-10-12T22:38:51.673Z,17.17
2022-10-12T22:41:21.395Z,28.08
2022-10-12T22:43:51.654Z,16.92
2022-10-12T22:46:22.772Z,22.33
2022-10-12T22:48:51.918Z,24.50
2022-10-12T22:51:23.245Z,23.17
2022-10-12T22:53:51.760Z,18.40
2022-10-12T22:56:20.226Z,24.35
2022-10-12T22:58:49.042Z,16.10
2022-10-12T23:01:18.892Z,18.05
2022-10-12T23:03:48.512Z,19.38
2022-10-12T23:06:18.656Z,17.50
2022-10-12T23:08:47.976Z,15.57
2022-10-12T23:11:17.616Z,19.85
2022-10-12T23:13:47.030Z,20.95
2022-10-12T23:16:17.867Z,20.85
2022-10-12T23:18:48.053Z,15.43
2022-10-12T23:21:18.417Z,15.85
2022-10-12T23:23:47.302Z,25.73
2022-10-12T23:26:18.656Z,31.52
2022-10-12T23:28:48.059Z,17.55
2022-10-12T23:31:18.476Z,31.52
2022-10-12T23:33:48.801Z,15.32
2022-10-12T23:36:18.665Z,19.95
2022-10-12T23:38:46.987Z,23.77
2022-10-12T23:41:15.309Z,19.13
2022-10-12T23:43:43.981Z,16.75
2022-10-12T23:46:13.495Z,15.75
2022-10-12T23:48:42.042Z,22.23
2022-10-12T23:51:12.190Z,18.27
2022-10-12T23:53:42.605Z,15.55
2022-10-12T23:56:11.278Z,16.20
2022-10-12T23:58:40.705Z,17.80
